createdAt,value
2018-09-03T04:01:59.344Z,17.00
2018-09-03T04:04:27.442Z,17.00
2018-09-03T04:06:55.488Z,17.00
2018-09-03T04:09:23.541Z,16.90
2018-09-03T04:11:51.643Z,16.90
2018-09-03T04:14:19.773Z,16.90
2018-09-03T04:16:47.846Z,16.80
2018-09-03T04:19:15.924Z,16.80
2018-09-03T04:21:45.301Z,16.90
2018-09-03T04:24:13.377Z,16.80
2018-09-03T04:26:41.485Z,16.90
2018-09-03T04:29:09.601Z,16.80
2018-09-03T04:31:37.643Z,16.90
2018-09-03T04:34:05.856Z,16.90
2018-09-03T04:36:33.912Z,16.90
2018-09-03T04:39:01.995Z,16.80
2018-09-03T04:41:30.100Z,16.80
2018-09-03T04:43:59.519Z,16.80
2018-09-03T04:46:27.651Z,16.80
2018-09-03T04:48:55.716Z,16.80
2018-09-03T04:51:24.348Z,16.70
2018-09-03T04:53:52.412Z,16.70
2018-09-03T04:56:20.489Z,16.80
2018-09-03T04:58:48.572Z,16.60
2018-09-03T05:01:17.563Z,16.60
2018-09-03T05:03:45.616Z,16.70
2018-09-03T05:06:14.590Z,16.70
2018-09-03T05:08:43.311Z,16.70
2018-09-03T05:11:11.412Z,16.80
2018-09-03T05:13:39.972Z,16.70
2018-09-03T05:16:08.040Z,16.80
2018-09-03T05:18:36.105Z,16.90
2018-09-03T05:21:04.164Z,16.90
2018-09-03T05:23:32.251Z,17.00
2018-09-03T05:26:00.548Z,16.90
2018-09-03T05:28:28.619Z,17.00
2018-09-03T05:30:56.684Z,17.00
2018-09-03T05:33:24.744Z,17.10
2018-09-03T05:35:52.815Z,17.10
2018-09-03T05:38:21.195Z,17.20
2018-09-03T05:40:49.284Z,17.20
2018-09-03T05:43:17.550Z,17.30
2018-09-03T05:45:46.412Z,17.20
2018-09-03T05:48:14.476Z,17.30
2018-09-03T05:50:42.612Z,17.30
2018-09-03T05:53:10.644Z,17.40
2018-09-03T05:55:38.716Z,17.30
2018-09-03T05:58:07.607Z,17.30
2018-09-03T06:00:35.672Z,17.30
2018-09-03T06:03:03.719Z,17.40
2018-09-03T06:05:31.783Z,17.40
2018-09-03T06:07:59.843Z,17.60
2018-09-03T06:10:27.949Z,17.70
2018-09-03T06:12:55.953Z,17.80
2018-09-03T06:15:24.059Z,17.80
2018-09-03T06:17:52.137Z,17.80
2018-09-03T06:20:20.207Z,17.80
2018-09-03T06:22:48.219Z,18.00
2018-09-03T06:25:17.352Z,18.00
2018-09-03T06:27:45.431Z,18.10
2018-09-03T06:30:13.488Z,18.00
2018-09-03T06:32:41.533Z,18.10
2018-09-03T06:35:09.599Z,18.10
2018-09-03T06:37:37.648Z,18.20
2018-09-03T06:40:05.724Z,18.30
2018-09-03T06:42:38.208Z,18.40
2018-09-03T06:45:06.775Z,18.60
2018-09-03T06:47:36.347Z,18.60
2018-09-03T06:50:04.419Z,18.60
2018-09-03T06:52:32.548Z,18.60
2018-09-03T06:55:00.619Z,18.50
2018-09-03T06:57:28.827Z,18.50
2018-09-03T06:59:57.407Z,18.50
2018-09-03T07:02:25.547Z,18.60
2018-09-03T07:04:54.595Z,18.60
2018-09-03T07:07:22.823Z,18.50
2018-09-03T07:09:50.871Z,18.50
2018-09-03T07:12:18.934Z,18.50
2018-09-03T07:14:46.987Z,18.50
2018-09-03T07:17:15.055Z,18.50
2018-09-03T07:19:43.116Z,18.40
2018-09-03T07:22:11.177Z,18.50
2018-09-03T07:24:39.249Z,18.30
2018-09-03T07:27:08.499Z,18.20
2018-09-03T07:29:36.595Z,18.40
2018-09-03T07:32:04.655Z,18.40
2018-09-03T07:34:32.708Z,18.50
2018-09-03T07:37:00.767Z,18.40
2018-09-03T07:39:28.820Z,18.40
2018-09-03T07:41:56.881Z,18.60
2018-09-03T07:44:24.922Z,18.70
2018-09-03T07:46:52.996Z,18.90
2018-09-03T07:49:22.460Z,19.10
2018-09-03T07:51:50.528Z,19.20
2018-09-03T07:54:18.579Z,19.40
2018-09-03T07:56:46.631Z,19.40
2018-09-03T07:59:14.893Z,19.50
2018-09-03T08:01:42.964Z,19.40
2018-09-03T08:04:11.039Z,19.80
2018-09-03T08:06:39.096Z,19.90
2018-09-03T08:09:08.338Z,20.20
2018-09-03T08:11:37.648Z,20.20
2018-09-03T08:14:05.723Z,20.50
2018-09-03T08:16:33.962Z,20.60
2018-09-03T08:19:02.015Z,20.50
2018-09-03T08:21:30.227Z,20.70
2018-09-03T08:23:58.294Z,20.50
2018-09-03T08:26:26.379Z,20.60
2018-09-03T08:28:54.438Z,20.60
2018-09-03T08:31:22.487Z,20.50
2018-09-03T08:33:52.556Z,20.70
2018-09-03T08:36:20.623Z,21.10
2018-09-03T08:39:01.000Z,21.50
2018-09-03T08:41:29.064Z,21.20
2018-09-03T08:43:58.475Z,21.60
2018-09-03T08:46:26.535Z,21.10
2018-09-03T08:48:54.584Z,21.30
2018-09-03T08:51:24.793Z,21.50
2018-09-03T08:53:52.999Z,21.30
2018-09-03T08:56:21.062Z,21.60
2018-09-03T08:58:49.123Z,21.90
2018-09-03T09:01:17.179Z,22.10
2018-09-03T09:03:49.339Z,21.90
2018-09-03T09:06:19.208Z,22.10
2018-09-03T09:08:48.170Z,22.30
2018-09-03T09:11:17.469Z,22.20
2018-09-03T09:13:45.471Z,22.30
2018-09-03T09:16:13.515Z,23.10
2018-09-03T09:18:41.588Z,22.90
2018-09-03T09:21:09.645Z,24.10
2018-09-03T09:23:37.703Z,24.00
2018-09-03T09:26:05.905Z,23.90
2018-09-03T09:28:33.968Z,23.30
2018-09-03T09:31:02.011Z,23.50
2018-09-03T09:33:31.421Z,23.10
2018-09-03T09:35:59.472Z,22.40
2018-09-03T09:38:27.545Z,22.40
2018-09-03T09:40:57.715Z,21.90
2018-09-03T09:43:25.772Z,22.10
2018-09-03T09:45:53.843Z,22.00
2018-09-03T09:48:21.913Z,22.00
2018-09-03T09:50:49.985Z,22.60
2018-09-03T09:53:19.102Z,23.20
2018-09-03T09:55:47.156Z,23.30
2018-09-03T09:58:15.336Z,23.50
2018-09-03T10:00:48.751Z,23.20
2018-09-03T10:03:21.104Z,23.60
2018-09-03T10:05:49.166Z,23.60
2018-09-03T10:08:17.220Z,22.90
2018-09-03T10:10:45.288Z,23.30
2018-09-03T10:13:13.351Z,24.20
2018-09-03T10:15:41.418Z,25.20
2018-09-03T10:18:09.483Z,25.10
2018-09-03T10:20:48.171Z,25.50
2018-09-03T10:23:16.199Z,27.30
2018-09-03T10:25:44.290Z,26.80
2018-09-03T10:28:12.324Z,24.90
2018-09-03T10:30:40.369Z,25.30
2018-09-03T10:33:08.423Z,26.30
2018-09-03T10:35:36.495Z,25.20
2018-09-03T10:38:04.820Z,24.90
2018-09-03T10:40:45.304Z,24.80
2018-09-03T10:43:13.359Z,25.20
2018-09-03T10:45:43.324Z,24.40
2018-09-03T10:48:11.961Z,24.00
2018-09-03T10:50:40.021Z,23.70
2018-09-03T10:53:08.799Z,23.40
2018-09-03T10:55:36.968Z,23.20
2018-09-03T10:58:05.048Z,22.60
2018-09-03T11:00:34.587Z,23.30
2018-09-03T11:03:02.803Z,23.30
2018-09-03T11:05:30.876Z,23.30
2018-09-03T11:07:58.939Z,23.50
2018-09-03T11:13:02.597Z,24.30
2018-09-03T11:15:30.619Z,24.30
2018-09-03T11:17:58.792Z,24.10
2018-09-03T11:20:36.323Z,23.90
2018-09-03T11:23:04.404Z,23.80
2018-09-03T11:25:34.419Z,23.60
2018-09-03T11:28:02.622Z,23.80
2018-09-03T11:30:30.687Z,23.90
2018-09-03T11:32:59.969Z,24.10
2018-09-03T11:35:28.038Z,23.70
2018-09-03T11:37:58.285Z,23.60
2018-09-03T11:40:26.644Z,23.40
2018-09-03T11:42:54.890Z,23.20
2018-09-03T11:45:23.610Z,23.20
2018-09-03T11:47:51.691Z,23.10
2018-09-03T11:50:20.708Z,23.10
2018-09-03T11:52:48.956Z,23.00
2018-09-03T11:55:17.225Z,22.80
2018-09-03T11:57:52.911Z,22.40
2018-09-03T12:00:29.149Z,22.40
2018-09-03T12:02:57.447Z,22.80
2018-09-03T12:05:25.546Z,23.10
2018-09-03T12:07:53.663Z,23.20
2018-09-03T12:10:21.720Z,22.90
2018-09-03T12:12:55.871Z,23.30
2018-09-03T12:15:35.198Z,23.10
2018-09-03T12:18:03.269Z,23.40
2018-09-03T12:20:31.424Z,23.40
2018-09-03T12:23:09.768Z,23.10
2018-09-03T12:25:37.834Z,23.50
2018-09-03T12:28:09.569Z,23.00
2018-09-03T12:30:38.749Z,23.20
2018-09-03T12:33:06.824Z,23.50
2018-09-03T12:35:34.907Z,23.60
2018-09-03T12:38:02.971Z,23.80
2018-09-03T12:40:31.244Z,23.70
2018-09-03T12:42:59.330Z,23.90
2018-09-03T12:45:32.704Z,23.90
2018-09-03T12:48:00.781Z,23.80
2018-09-03T12:50:32.035Z,23.80
2018-09-03T12:53:13.340Z,23.90
2018-09-03T12:55:41.398Z,24.20
2018-09-03T12:58:10.743Z,24.40
2018-09-03T13:00:38.979Z,24.80
2018-09-03T13:03:06.954Z,24.70
2018-09-03T13:05:35.014Z,24.60
2018-09-03T13:08:03.083Z,24.30
2018-09-03T13:10:31.283Z,24.30
2018-09-03T13:12:59.393Z,24.70
2018-09-03T13:15:27.940Z,24.80
2018-09-03T13:17:56.032Z,24.90
2018-09-03T13:20:24.119Z,24.60
2018-09-03T13:22:52.188Z,25.00
2018-09-03T13:25:20.406Z,24.90
2018-09-03T13:27:49.511Z,24.90
2018-09-03T13:30:23.384Z,24.50
2018-09-03T13:32:51.457Z,24.50
2018-09-03T13:35:19.549Z,24.30
2018-09-03T13:37:49.681Z,24.30
2018-09-03T13:40:17.752Z,23.90
2018-09-03T13:42:46.534Z,23.80
2018-09-03T13:45:14.612Z,24.00
2018-09-03T13:47:42.659Z,24.10
2018-09-03T13:50:10.737Z,24.10
2018-09-03T13:52:40.544Z,23.70
2018-09-03T13:55:08.655Z,23.80
2018-09-03T13:57:36.682Z,23.60
2018-09-03T14:00:08.142Z,23.30
2018-09-03T14:02:36.195Z,23.50
2018-09-03T14:05:04.284Z,23.60
2018-09-03T14:07:33.012Z,23.60
2018-09-03T14:10:06.531Z,23.40
2018-09-03T14:12:34.609Z,23.50
2018-09-03T14:15:02.770Z,23.50
2018-09-03T14:17:30.886Z,23.80
2018-09-03T14:19:59.342Z,24.10
2018-09-03T14:22:27.592Z,24.20
2018-09-03T14:24:55.652Z,24.60
2018-09-03T14:27:23.851Z,24.70
2018-09-03T14:29:53.684Z,24.60
2018-09-03T14:32:21.799Z,24.60
2018-09-03T14:34:49.867Z,24.60
2018-09-03T14:37:21.017Z,24.70
2018-09-03T14:39:49.102Z,24.30
2018-09-03T14:42:18.556Z,24.00
2018-09-03T14:44:47.302Z,24.10
2018-09-03T14:47:17.002Z,24.10
2018-09-03T14:49:45.089Z,23.80
2018-09-03T14:52:13.849Z,24.10
2018-09-03T14:54:46.466Z,24.40
2018-09-03T14:57:14.560Z,24.60
2018-09-03T14:59:44.239Z,24.20
2018-09-03T15:02:12.502Z,24.20
2018-09-03T15:04:41.024Z,24.30
2018-09-03T15:10:02.786Z,24.30
2018-09-03T15:12:35.013Z,24.40
2018-09-03T15:15:03.171Z,24.60
2018-09-03T15:20:15.586Z,24.20
2018-09-03T15:22:43.680Z,24.20
2018-09-03T15:25:19.626Z,24.40
2018-09-03T15:28:11.171Z,24.50
2018-09-03T15:30:40.437Z,24.60
2018-09-03T15:33:08.526Z,24.30
2018-09-03T15:35:36.586Z,24.20
2018-09-03T15:38:04.653Z,24.10
2018-09-03T15:40:33.875Z,24.30
2018-09-03T15:43:02.090Z,24.10
2018-09-03T15:45:33.724Z,24.20
2018-09-03T15:48:14.673Z,24.40
2018-09-03T15:50:42.768Z,24.60
2018-09-03T15:53:14.526Z,24.60
2018-09-03T15:55:42.610Z,24.50
2018-09-03T15:58:20.542Z,24.50
2018-09-03T16:00:48.679Z,24.20
2018-09-03T16:03:17.874Z,24.20
2018-09-03T16:05:59.043Z,23.90
2018-09-03T16:08:27.117Z,23.90
2018-09-03T16:10:55.292Z,23.70
2018-09-03T16:13:23.372Z,23.60
2018-09-03T16:15:51.427Z,23.50
2018-09-03T16:18:19.744Z,23.30
2018-09-03T16:20:47.895Z,23.10
2018-09-03T16:23:15.949Z,23.00
2018-09-03T16:25:49.607Z,22.80
2018-09-03T16:28:17.660Z,22.60
2018-09-03T16:30:45.719Z,22.50
2018-09-03T16:33:17.741Z,22.60
2018-09-03T16:35:45.810Z,22.40
2018-09-03T16:38:13.882Z,22.60
2018-09-03T16:40:42.600Z,22.60
2018-09-03T16:43:10.652Z,22.40
2018-09-03T16:45:40.828Z,22.30
2018-09-03T16:48:08.975Z,22.40
2018-09-03T16:50:43.932Z,22.50
2018-09-03T16:53:12.162Z,22.50
2018-09-03T16:55:40.411Z,22.40
2018-09-03T16:58:08.641Z,22.20
2018-09-03T17:00:36.809Z,22.20
2018-09-03T17:03:13.827Z,22.20
2018-09-03T17:05:42.081Z,22.20
2018-09-03T17:08:10.282Z,22.10
2018-09-03T17:10:38.271Z,22.10
2018-09-03T17:13:06.796Z,22.00
2018-09-03T17:15:34.863Z,22.00
